createdAt,value
2017-06-19T00:03:13.908Z,0
2017-06-19T00:13:28.616Z,0
2017-06-19T00:23:43.411Z,0
2017-06-19T00:33:58.933Z,0
2017-06-19T00:44:13.618Z,0
2017-06-19T00:54:29.293Z,0
2017-06-19T01:04:43.343Z,0
2017-06-19T01:14:57.423Z,0
2017-06-19T01:25:11.866Z,0
2017-06-19T01:35:25.683Z,0
2017-06-19T01:45:40.049Z,0
2017-06-19T01:55:54.846Z,0
2017-06-19T02:06:08.909Z,0
2017-06-19T02:16:23.713Z,0
2017-06-19T02:26:39.258Z,0
2017-06-19T02:36:53.299Z,0
2017-06-19T02:47:08.127Z,0
2017-06-19T02:57:23.627Z,5
2017-06-19T03:07:38.544Z,10
2017-06-19T03:17:52.490Z,20
2017-06-19T03:28:08.150Z,30
2017-06-19T03:38:22.872Z,45
2017-06-19T03:48:36.876Z,65
2017-06-19T03:58:51.156Z,80
2017-06-19T04:09:06.263Z,95
2017-06-19T04:19:20.372Z,105
2017-06-19T04:29:34.162Z,120
2017-06-19T04:39:49.915Z,135
2017-06-19T04:50:04.436Z,175
2017-06-19T05:00:20.183Z,160
2017-06-19T05:10:35.247Z,170
2017-06-19T05:20:49.660Z,180
2017-06-19T05:31:04.650Z,185
2017-06-19T05:41:19.938Z,200
2017-06-19T05:51:35.668Z,215
2017-06-19T06:01:50.512Z,1065
2017-06-19T06:12:05.334Z,1105
2017-06-19T06:22:20.809Z,1040
2017-06-19T06:32:35.011Z,1090
2017-06-19T06:42:50.321Z,1135
2017-06-19T06:53:05.263Z,1140
2017-06-19T07:03:19.980Z,1220
2017-06-19T07:13:35.712Z,1305
2017-06-19T07:23:49.754Z,1370
2017-06-19T07:34:05.174Z,1415
2017-06-19T07:44:20.814Z,1425
2017-06-19T07:54:35.030Z,1530
2017-06-19T08:04:49.225Z,1575
2017-06-19T08:15:04.593Z,1685
2017-06-19T08:25:18.762Z,1740
2017-06-19T08:35:33.984Z,1725
2017-06-19T08:45:49.985Z,1800
2017-06-19T08:56:05.016Z,1835
2017-06-19T09:06:20.013Z,1945
2017-06-19T09:16:34.703Z,1935
2017-06-19T09:26:50.130Z,1925
2017-06-19T09:37:06.133Z,2020
2017-06-19T09:47:21.006Z,1975
2017-06-19T09:57:36.046Z,2055
2017-06-19T10:07:51.857Z,2170
2017-06-19T10:18:06.094Z,2235
2017-06-19T10:28:20.969Z,2130
2017-06-19T10:38:35.222Z,2135
2017-06-19T10:48:49.620Z,2295
2017-06-19T10:59:05.051Z,2370
2017-06-19T11:09:20.831Z,2200
2017-06-19T11:19:36.179Z,2305
2017-06-19T11:29:52.125Z,2290
2017-06-19T11:40:06.183Z,2265
2017-06-19T11:50:20.501Z,2090
2017-06-19T12:00:34.960Z,2040
2017-06-19T12:10:50.335Z,2035
2017-06-19T12:21:04.465Z,2265
2017-06-19T12:31:20.118Z,2100
2017-06-19T12:41:35.857Z,2150
2017-06-19T12:51:49.918Z,2030
2017-06-19T13:02:04.970Z,2040
2017-06-19T13:12:19.950Z,1920
2017-06-19T13:22:35.913Z,1715
2017-06-19T13:32:51.087Z,1465
2017-06-19T13:43:06.323Z,1320
2017-06-19T13:53:20.895Z,1110
2017-06-19T14:03:36.463Z,1025
2017-06-19T14:13:50.727Z,1135
2017-06-19T14:24:05.956Z,1430
2017-06-19T14:34:21.690Z,1390
2017-06-19T14:44:36.392Z,2025
2017-06-19T14:54:51.478Z,2400
2017-06-19T15:05:05.562Z,1695
2017-06-19T15:15:20.239Z,1605
2017-06-19T15:25:34.817Z,1545
2017-06-19T15:35:50.115Z,1545
2017-06-19T15:46:06.086Z,1530
2017-06-19T15:56:21.279Z,1530
2017-06-19T16:06:36.026Z,1320
2017-06-19T16:16:50.473Z,1095
2017-06-19T16:27:04.653Z,990
2017-06-19T16:37:19.029Z,1000
2017-06-19T16:47:34.913Z,455
2017-06-19T16:57:50.255Z,410
2017-06-19T17:08:05.197Z,360
2017-06-19T17:18:19.184Z,320
2017-06-19T17:28:34.593Z,320
2017-06-19T17:38:48.740Z,300
2017-06-19T17:49:02.986Z,285
2017-06-19T17:59:18.633Z,235
2017-06-19T18:09:32.934Z,210
2017-06-19T18:19:47.361Z,180
2017-06-19T18:30:01.597Z,165
2017-06-19T18:40:16.902Z,145
2017-06-19T18:50:32.468Z,130
2017-06-19T19:00:46.650Z,115
2017-06-19T19:11:02.338Z,95
2017-06-19T19:21:17.208Z,65
2017-06-19T19:31:31.517Z,45
2017-06-19T19:41:45.461Z,25
2017-06-19T19:52:01.053Z,10
2017-06-19T20:02:16.141Z,5
2017-06-19T20:12:31.087Z,0
2017-06-19T20:22:46.860Z,0
2017-06-19T20:33:02.041Z,0
2017-06-19T20:43:16.766Z,0
2017-06-19T20:53:31.087Z,0
2017-06-19T21:03:45.936Z,0
2017-06-19T21:14:00.909Z,0
2017-06-19T21:24:15.382Z,0
2017-06-19T21:34:30.658Z,0
2017-06-19T21:44:44.594Z,0
2017-06-19T21:54:58.500Z,0
2017-06-19T22:05:12.515Z,0
2017-06-19T22:15:27.375Z,0
2017-06-19T22:25:42.170Z,0
2017-06-19T22:35:57.046Z,0
2017-06-19T22:46:12.791Z,0
2017-06-19T22:56:27.461Z,0
2017-06-19T23:06:43.103Z,0
2017-06-19T23:16:58.639Z,0
2017-06-19T23:27:13.818Z,0
2017-06-19T23:37:28.792Z,0
2017-06-19T23:47:44.173Z,0
2017-06-19T23:57:58.685Z,0
